createdAt,value
2018-02-17T00:00:04.663Z,54.57
2018-02-17T00:02:32.600Z,54.52
2018-02-17T00:05:00.597Z,54.85
2018-02-17T00:07:28.547Z,54.81
2018-02-17T00:09:56.843Z,54.35
2018-02-17T00:12:24.893Z,54.92
2018-02-17T00:14:52.854Z,54.71
2018-02-17T00:17:20.775Z,56.72
2018-02-17T00:19:48.733Z,56.36
2018-02-17T00:22:16.760Z,57.59
2018-02-17T00:24:44.770Z,56.72
2018-02-17T00:27:12.760Z,55.96
2018-02-17T00:29:40.704Z,54.87
2018-02-17T00:32:08.651Z,55.60
2018-02-17T00:34:36.594Z,55.99
2018-02-17T00:37:04.586Z,55.76
2018-02-17T00:39:32.535Z,56.22
2018-02-17T00:42:00.472Z,56.25
2018-02-17T00:44:28.421Z,55.44
2018-02-17T00:46:56.387Z,55.22
2018-02-17T00:49:24.353Z,54.77
2018-02-17T00:51:52.301Z,55.09
2018-02-17T00:54:20.252Z,55.42
2018-02-17T00:56:48.214Z,55.29
2018-02-17T00:59:16.126Z,55.51
2018-02-17T01:01:43.992Z,55.74
2018-02-17T01:04:11.965Z,55.21
2018-02-17T01:06:39.919Z,55.22
2018-02-17T01:09:07.889Z,56.05
2018-02-17T01:11:36.607Z,55.86
2018-02-17T01:14:04.583Z,55.82
2018-02-17T01:16:32.645Z,55.56
2018-02-17T01:19:00.616Z,55.96
2018-02-17T01:21:28.555Z,55.91
2018-02-17T01:23:56.682Z,55.73
2018-02-17T01:26:24.630Z,56.32
2018-02-17T01:28:52.555Z,56.27
2018-02-17T01:31:20.431Z,56.69
2018-02-17T01:33:48.447Z,56.31
2018-02-17T01:36:16.391Z,56.24
2018-02-17T01:38:44.416Z,56.44
2018-02-17T01:41:12.350Z,56.11
2018-02-17T01:43:40.283Z,55.80
2018-02-17T01:46:08.256Z,58.08
2018-02-17T01:48:36.203Z,59.22
2018-02-17T01:51:04.207Z,58.19
2018-02-17T01:53:32.233Z,57.25
2018-02-17T01:56:00.201Z,56.60
2018-02-17T01:58:28.177Z,56.54
2018-02-17T02:00:56.110Z,56.04
2018-02-17T02:03:24.055Z,56.20
2018-02-17T02:05:51.974Z,56.16
2018-02-17T02:08:19.913Z,56.71
2018-02-17T02:10:47.887Z,55.91
2018-02-17T02:13:16.239Z,56.28
2018-02-17T02:15:44.167Z,56.67
2018-02-17T02:18:12.100Z,56.35
2018-02-17T02:20:40.060Z,56.49
2018-02-17T02:23:08.031Z,56.75
2018-02-17T02:25:36.059Z,57.54
2018-02-17T02:28:04.005Z,58.82
2018-02-17T02:30:32.003Z,59.25
2018-02-17T02:32:59.943Z,57.32
2018-02-17T02:35:27.903Z,58.16
2018-02-17T02:37:55.924Z,57.06
2018-02-17T02:40:24.002Z,57.49
2018-02-17T02:42:51.906Z,57.06
2018-02-17T02:45:21.185Z,57.01
2018-02-17T02:47:49.158Z,57.05
2018-02-17T02:50:17.174Z,57.46
2018-02-17T02:52:45.116Z,56.90
2018-02-17T02:55:13.074Z,56.80
2018-02-17T02:57:41.015Z,56.75
2018-02-17T03:00:08.968Z,57.04
2018-02-17T03:02:36.983Z,57.28
2018-02-17T03:05:04.948Z,57.23
2018-02-17T03:07:32.902Z,57.08
2018-02-17T03:10:00.886Z,57.15
2018-02-17T03:12:28.778Z,56.71
2018-02-17T03:14:57.225Z,57.07
2018-02-17T03:17:25.199Z,57.20
2018-02-17T03:19:53.203Z,58.53
2018-02-17T03:22:21.096Z,58.05
2018-02-17T03:24:48.983Z,60.85
2018-02-17T03:27:16.902Z,61.79
2018-02-17T03:29:44.904Z,60.14
2018-02-17T03:32:12.886Z,58.51
2018-02-17T03:34:40.866Z,57.75
2018-02-17T03:37:08.803Z,57.45
2018-02-17T03:39:36.708Z,57.83
2018-02-17T03:42:04.682Z,61.71
2018-02-17T03:44:32.655Z,59.24
2018-02-17T03:47:00.565Z,58.71
2018-02-17T03:49:28.486Z,58.57
2018-02-17T03:51:56.430Z,61.49
2018-02-17T03:54:24.422Z,60.26
2018-02-17T03:56:52.325Z,59.48
2018-02-17T03:59:20.290Z,60.69
2018-02-17T04:01:48.233Z,60.75
2018-02-17T04:04:16.223Z,59.18
2018-02-17T04:06:44.214Z,59.69
2018-02-17T04:09:12.124Z,58.53
2018-02-17T04:11:40.098Z,57.24
2018-02-17T04:14:08.019Z,56.89
2018-02-17T04:16:36.398Z,58.14
2018-02-17T04:19:04.350Z,57.86
2018-02-17T04:21:32.288Z,57.27
2018-02-17T04:24:00.310Z,58.83
2018-02-17T04:26:28.290Z,58.01
2018-02-17T04:28:56.250Z,58.29
2018-02-17T04:31:24.153Z,59.54
2018-02-17T04:33:52.116Z,56.92
2018-02-17T04:36:20.085Z,56.67
2018-02-17T04:38:48.049Z,55.13
2018-02-17T04:44:45.375Z,54.42
2018-02-17T04:50:25.375Z,57.22
2018-02-17T04:56:14.083Z,59.06
2018-02-17T04:58:42.153Z,58.23
2018-02-17T05:01:12.002Z,57.13
2018-02-17T05:03:58.933Z,57.61
2018-02-17T05:06:42.035Z,59.40
2018-02-17T05:09:10.335Z,60.61
2018-02-17T05:11:38.705Z,62.63
2018-02-17T05:17:18.400Z,58.76
2018-02-17T05:19:51.938Z,56.84
2018-02-17T05:22:34.152Z,56.07
2018-02-17T05:25:07.350Z,56.40
2018-02-17T05:27:38.490Z,57.74
2018-02-17T05:30:09.110Z,57.65
2018-02-17T05:35:46.268Z,57.54
2018-02-17T05:38:15.046Z,57.64
2018-02-17T05:40:43.817Z,57.35
2018-02-17T05:43:12.918Z,60.18
2018-02-17T05:45:45.683Z,57.15
2018-02-17T05:48:13.755Z,56.25
2018-02-17T05:50:41.756Z,56.71
2018-02-17T05:53:09.804Z,57.38
2018-02-17T05:55:37.844Z,59.04
2018-02-17T05:58:06.340Z,55.61
2018-02-17T06:00:34.827Z,55.35
2018-02-17T06:03:03.307Z,53.67
2018-02-17T06:05:31.575Z,53.19
2018-02-17T06:07:59.962Z,53.18
2018-02-17T06:10:28.268Z,53.64
2018-02-17T06:12:56.705Z,53.63
2018-02-17T06:15:24.618Z,52.74
2018-02-17T06:17:53.257Z,51.72
2018-02-17T06:20:21.273Z,50.19
2018-02-17T06:22:49.232Z,50.27
2018-02-17T06:25:17.266Z,50.40
2018-02-17T06:27:45.185Z,50.70
2018-02-17T06:30:13.191Z,49.75
2018-02-17T06:32:41.148Z,49.27
2018-02-17T06:35:09.102Z,49.17
2018-02-17T06:37:37.131Z,48.48
2018-02-17T06:40:05.106Z,48.11
2018-02-17T06:42:33.355Z,46.36
2018-02-17T06:45:01.916Z,46.22
2018-02-17T06:47:30.119Z,45.15
2018-02-17T06:49:58.089Z,44.40
2018-02-17T06:52:26.250Z,43.19
2018-02-17T06:54:54.625Z,41.42
2018-02-17T06:57:23.109Z,43.76
2018-02-17T06:59:51.315Z,41.29
2018-02-17T07:02:19.688Z,41.37
2018-02-17T07:04:47.739Z,41.93
2018-02-17T07:07:15.661Z,41.47
2018-02-17T07:09:44.877Z,41.26
2018-02-17T07:12:12.918Z,43.07
2018-02-17T07:14:40.937Z,42.31
2018-02-17T07:17:08.987Z,42.84
2018-02-17T07:19:37.279Z,42.56
2018-02-17T07:22:05.491Z,41.57
2018-02-17T07:24:33.643Z,40.20
2018-02-17T07:27:01.948Z,38.66
2018-02-17T07:29:30.121Z,38.72
2018-02-17T07:31:58.497Z,38.80
2018-02-17T07:34:27.033Z,37.73
2018-02-17T07:36:56.192Z,38.69
2018-02-17T07:39:25.140Z,39.56
2018-02-17T07:41:53.511Z,39.68
2018-02-17T07:44:21.880Z,39.91
2018-02-17T07:46:50.025Z,39.95
2018-02-17T07:49:18.526Z,39.29
2018-02-17T07:51:47.531Z,38.93
2018-02-17T07:54:15.818Z,37.95
2018-02-17T07:56:44.694Z,39.03
2018-02-17T07:59:12.935Z,37.75
2018-02-17T08:01:41.398Z,38.17
2018-02-17T08:04:10.239Z,37.23
2018-02-17T08:06:38.286Z,36.44
2018-02-17T08:09:06.434Z,35.19
2018-02-17T08:11:34.759Z,34.24
2018-02-17T08:14:03.136Z,34.85
2018-02-17T08:16:31.406Z,33.43
2018-02-17T08:18:59.680Z,32.17
2018-02-17T08:21:27.875Z,33.01
2018-02-17T08:23:56.257Z,32.00
2018-02-17T08:26:24.326Z,32.12
2018-02-17T08:28:52.366Z,30.71
2018-02-17T08:31:20.334Z,30.86
2018-02-17T08:33:48.262Z,30.42
2018-02-17T08:36:17.293Z,31.24
2018-02-17T08:38:45.230Z,30.20
2018-02-17T08:41:13.201Z,27.22
2018-02-17T08:43:41.165Z,26.06
2018-02-17T08:46:09.182Z,28.07
2018-02-17T08:48:37.115Z,30.55
2018-02-17T08:51:05.093Z,30.30
2018-02-17T08:53:33.168Z,28.20
2018-02-17T08:56:01.204Z,27.99
2018-02-17T08:58:29.738Z,26.36
2018-02-17T09:00:58.063Z,27.37
2018-02-17T09:03:26.066Z,27.70
2018-02-17T09:05:54.461Z,27.41
2018-02-17T09:08:22.519Z,27.08
2018-02-17T09:10:50.588Z,29.59
2018-02-17T09:13:18.567Z,28.41
2018-02-17T09:15:46.551Z,26.67
2018-02-17T09:18:15.124Z,22.84
2018-02-17T09:20:43.113Z,23.72
2018-02-17T09:23:11.085Z,24.97
2018-02-17T09:25:39.082Z,25.56
2018-02-17T09:28:07.123Z,27.13
2018-02-17T09:30:35.207Z,25.12
2018-02-17T09:33:03.243Z,24.70
2018-02-17T09:35:31.864Z,25.88
2018-02-17T09:37:59.901Z,23.80
2018-02-17T09:40:27.896Z,25.07
2018-02-17T09:42:55.869Z,25.35
2018-02-17T09:45:23.868Z,24.04
2018-02-17T09:47:51.831Z,22.26
2018-02-17T09:50:19.752Z,20.88
2018-02-17T09:52:47.811Z,23.07
2018-02-17T09:55:15.765Z,19.77
2018-02-17T09:57:43.689Z,20.93
2018-02-17T10:00:11.691Z,23.88
2018-02-17T10:02:39.654Z,23.50
2018-02-17T10:05:07.571Z,22.77
2018-02-17T10:07:36.040Z,21.36
2018-02-17T10:10:04.041Z,22.21
2018-02-17T10:12:32.012Z,21.76
2018-02-17T10:15:00.015Z,20.34
2018-02-17T10:17:27.978Z,18.56
2018-02-17T10:19:55.959Z,20.02
2018-02-17T10:22:23.941Z,19.27
2018-02-17T10:24:51.919Z,20.48
2018-02-17T10:27:19.859Z,23.26
2018-02-17T10:29:47.886Z,21.91
2018-02-17T10:32:15.818Z,18.34
2018-02-17T10:34:43.869Z,16.54
2018-02-17T10:37:11.803Z,18.92
2018-02-17T10:39:39.746Z,17.95
2018-02-17T10:42:07.734Z,16.45
2018-02-17T10:44:35.680Z,16.51
2018-02-17T10:47:03.611Z,16.11
2018-02-17T10:49:31.506Z,15.18
2018-02-17T10:51:59.461Z,16.51
2018-02-17T10:54:27.417Z,16.38
2018-02-17T10:56:55.338Z,16.57
2018-02-17T10:59:23.299Z,15.32
2018-02-17T11:01:51.281Z,17.96
2018-02-17T11:04:19.246Z,17.45
2018-02-17T11:06:47.218Z,18.18
2018-02-17T11:09:15.458Z,18.65
2018-02-17T11:11:43.414Z,17.69
2018-02-17T11:14:11.362Z,18.56
2018-02-17T11:16:39.352Z,19.16
2018-02-17T11:19:07.397Z,19.80
2018-02-17T11:21:35.430Z,20.79
2018-02-17T11:24:03.330Z,18.91
2018-02-17T11:26:31.325Z,19.26
2018-02-17T11:28:59.275Z,19.08
2018-02-17T11:31:27.285Z,18.50
2018-02-17T11:33:55.235Z,19.15
2018-02-17T11:36:23.131Z,20.16
2018-02-17T11:38:51.105Z,20.15
2018-02-17T11:41:19.191Z,20.00
2018-02-17T11:43:47.348Z,19.36
2018-02-17T11:46:15.514Z,18.21
2018-02-17T11:48:43.646Z,18.27
2018-02-17T11:51:11.840Z,19.02
2018-02-17T11:53:39.976Z,17.54
2018-02-17T11:56:08.069Z,17.58
2018-02-17T11:58:36.230Z,17.90
2018-02-17T12:01:04.395Z,18.85
2018-02-17T12:03:32.534Z,18.68
2018-02-17T12:06:00.713Z,19.13
2018-02-17T12:08:28.948Z,18.91
2018-02-17T12:10:57.564Z,17.62
2018-02-17T12:13:25.754Z,17.88
2018-02-17T12:15:53.833Z,18.66
2018-02-17T12:18:22.153Z,18.14
2018-02-17T12:20:50.275Z,17.33
2018-02-17T12:23:18.422Z,17.60
2018-02-17T12:25:46.627Z,19.78
2018-02-17T12:28:14.829Z,18.66
2018-02-17T12:30:43.017Z,18.59
2018-02-17T12:33:11.196Z,17.50
2018-02-17T12:35:39.464Z,16.63
2018-02-17T12:38:07.625Z,16.22
2018-02-17T12:40:35.645Z,15.75
2018-02-17T12:43:03.603Z,16.57
2018-02-17T12:45:31.541Z,16.62
2018-02-17T12:47:59.438Z,15.83
2018-02-17T12:50:27.418Z,16.77
2018-02-17T12:52:55.396Z,14.61
2018-02-17T12:55:23.369Z,14.43
2018-02-17T12:57:51.283Z,15.30
2018-02-17T13:00:19.291Z,15.49
2018-02-17T13:02:47.299Z,16.69
2018-02-17T13:05:15.324Z,15.75
2018-02-17T13:07:43.386Z,17.68
2018-02-17T13:10:11.377Z,16.93
2018-02-17T13:12:39.903Z,16.02
2018-02-17T13:15:07.883Z,16.89
2018-02-17T13:17:35.810Z,18.55
2018-02-17T13:20:03.782Z,17.24
2018-02-17T13:22:31.706Z,16.63
2018-02-17T13:24:59.695Z,17.29
2018-02-17T13:27:27.634Z,17.32
2018-02-17T13:29:55.639Z,17.95
2018-02-17T13:32:23.631Z,18.54
2018-02-17T13:34:51.615Z,17.68
2018-02-17T13:37:19.627Z,17.02
2018-02-17T13:39:47.560Z,17.92
2018-02-17T13:42:15.527Z,18.19
2018-02-17T13:44:43.475Z,19.26
2018-02-17T13:47:11.435Z,18.43
2018-02-17T13:49:39.344Z,18.32
2018-02-17T13:52:07.292Z,18.98
2018-02-17T13:54:35.328Z,20.41
2018-02-17T13:57:03.389Z,20.85
2018-02-17T13:59:31.357Z,21.74
2018-02-17T14:01:59.357Z,21.20
2018-02-17T14:04:27.347Z,22.70
2018-02-17T14:06:55.346Z,23.42
2018-02-17T14:09:23.264Z,24.07
2018-02-17T14:11:51.185Z,24.65
2018-02-17T14:14:19.722Z,22.90
2018-02-17T14:16:47.672Z,23.74
2018-02-17T14:19:15.649Z,22.71
2018-02-17T14:21:43.629Z,22.54
2018-02-17T14:24:11.591Z,23.24
2018-02-17T14:26:39.565Z,22.79
2018-02-17T14:29:07.616Z,21.22
2018-02-17T14:31:35.653Z,19.59
2018-02-17T14:34:03.641Z,19.02
2018-02-17T14:36:31.554Z,18.37
2018-02-17T14:38:59.540Z,18.06
2018-02-17T14:41:27.519Z,19.11
2018-02-17T14:43:55.425Z,20.37
2018-02-17T14:46:23.435Z,18.77
2018-02-17T14:48:51.481Z,18.79
2018-02-17T14:51:19.604Z,21.03
2018-02-17T14:53:47.651Z,21.00
2018-02-17T14:56:15.626Z,20.95
2018-02-17T14:58:43.671Z,20.52
2018-02-17T15:01:11.640Z,21.81
2018-02-17T15:03:39.618Z,25.08
2018-02-17T15:06:07.536Z,26.81
2018-02-17T15:08:35.525Z,27.37
2018-02-17T15:11:03.513Z,26.94
2018-02-17T15:13:31.383Z,28.83
2018-02-17T15:15:59.904Z,29.38
2018-02-17T15:18:27.862Z,28.60
2018-02-17T15:20:55.864Z,29.57
2018-02-17T15:23:23.875Z,28.55
2018-02-17T15:25:51.869Z,29.30
2018-02-17T15:28:19.798Z,29.45
2018-02-17T15:30:47.780Z,29.16
2018-02-17T15:33:15.691Z,29.50
2018-02-17T15:35:43.678Z,30.34
2018-02-17T15:38:11.539Z,30.82
2018-02-17T15:40:39.542Z,31.29
2018-02-17T15:43:07.470Z,31.18
2018-02-17T15:45:35.507Z,32.20
2018-02-17T15:48:03.435Z,32.98
2018-02-17T15:50:31.333Z,33.30
2018-02-17T15:52:59.358Z,34.41
2018-02-17T15:55:27.353Z,33.99
2018-02-17T15:57:55.404Z,34.89
2018-02-17T16:00:23.434Z,33.20
2018-02-17T16:02:51.403Z,35.28
2018-02-17T16:05:19.450Z,35.68
2018-02-17T16:07:47.396Z,39.55
2018-02-17T16:10:15.414Z,38.15
2018-02-17T16:12:43.421Z,39.67
2018-02-17T16:15:11.484Z,41.65
2018-02-17T16:17:39.542Z,41.38
2018-02-17T16:20:07.538Z,42.54
2018-02-17T16:22:35.601Z,41.25
2018-02-17T16:25:03.530Z,43.43
2018-02-17T16:27:31.507Z,44.84
2018-02-17T16:29:59.484Z,48.35
2018-02-17T16:32:27.506Z,49.13
2018-02-17T16:34:55.476Z,48.94
2018-02-17T16:37:23.414Z,50.41
2018-02-17T16:39:51.421Z,49.43
2018-02-17T16:42:19.410Z,48.28
2018-02-17T16:44:47.377Z,48.33
2018-02-17T16:47:15.406Z,49.30
2018-02-17T16:49:43.339Z,46.41
2018-02-17T16:52:11.326Z,48.57
2018-02-17T16:54:39.256Z,47.41
2018-02-17T16:57:07.197Z,50.71
2018-02-17T16:59:35.138Z,51.29
2018-02-17T17:02:03.043Z,49.96
2018-02-17T17:04:31.021Z,48.64
2018-02-17T17:06:58.999Z,47.95
2018-02-17T17:09:26.973Z,47.49
2018-02-17T17:11:54.989Z,48.43
2018-02-17T17:14:22.956Z,47.68
2018-02-17T17:16:50.907Z,46.70
2018-02-17T17:19:19.116Z,49.77
2018-02-17T17:21:47.128Z,47.85
2018-02-17T17:24:15.123Z,46.61
2018-02-17T17:26:43.209Z,46.79
2018-02-17T17:29:11.180Z,48.85
2018-02-17T17:31:39.214Z,48.30
2018-02-17T17:34:07.134Z,48.57
2018-02-17T17:36:35.094Z,48.65
2018-02-17T17:39:03.109Z,49.51
2018-02-17T17:41:31.074Z,50.02
2018-02-17T17:44:00.314Z,48.89
2018-02-17T17:46:28.332Z,48.65
2018-02-17T17:48:56.257Z,50.25
2018-02-17T17:51:24.264Z,48.43
2018-02-17T17:53:52.278Z,51.40
2018-02-17T17:56:20.274Z,48.08
2018-02-17T17:58:48.226Z,49.22
2018-02-17T18:01:16.202Z,48.45
2018-02-17T18:03:44.163Z,49.23
2018-02-17T18:06:12.160Z,52.43
2018-02-17T18:08:40.191Z,53.54
2018-02-17T18:11:08.197Z,51.34
2018-02-17T18:13:36.413Z,53.37
2018-02-17T18:16:04.427Z,54.58
2018-02-17T18:18:32.459Z,52.56
2018-02-17T18:21:00.869Z,50.12
2018-02-17T18:23:29.002Z,50.04
2018-02-17T18:25:58.182Z,51.46
2018-02-17T18:28:26.195Z,51.86
2018-02-17T18:30:54.228Z,50.24
2018-02-17T18:33:22.266Z,49.40
2018-02-17T18:35:50.275Z,49.58
2018-02-17T18:38:18.214Z,50.26
2018-02-17T18:40:46.245Z,50.65
2018-02-17T18:43:14.224Z,49.08
2018-02-17T18:45:42.173Z,50.70
2018-02-17T18:48:10.161Z,50.96
2018-02-17T18:50:38.179Z,52.47
2018-02-17T18:53:06.127Z,51.14
2018-02-17T18:55:34.109Z,53.89
2018-02-17T18:58:02.100Z,54.43
2018-02-17T19:00:30.055Z,54.02
2018-02-17T19:02:58.054Z,52.05
2018-02-17T19:05:26.107Z,50.91
2018-02-17T19:07:55.016Z,52.83
2018-02-17T19:10:23.088Z,54.10
2018-02-17T19:12:51.183Z,54.71
2018-02-17T19:15:19.461Z,52.97
2018-02-17T19:17:47.507Z,51.83
2018-02-17T19:20:15.437Z,50.60
2018-02-17T19:22:43.573Z,49.14
2018-02-17T19:25:11.535Z,49.08
2018-02-17T19:27:39.550Z,49.71
2018-02-17T19:30:07.578Z,48.92
2018-02-17T19:32:36.237Z,49.82
2018-02-17T19:35:04.269Z,49.26
2018-02-17T19:37:32.307Z,49.72
2018-02-17T19:40:00.775Z,48.57
2018-02-17T19:42:28.801Z,47.98
2018-02-17T19:44:56.925Z,48.07
2018-02-17T19:47:24.988Z,48.83
2018-02-17T19:49:54.511Z,48.65
2018-02-17T19:52:22.571Z,48.67
2018-02-17T19:54:50.467Z,48.79
2018-02-17T19:57:18.660Z,50.27
2018-02-17T19:59:46.643Z,50.06
2018-02-17T20:02:14.632Z,51.94
2018-02-17T20:04:42.612Z,50.77
2018-02-17T20:07:10.677Z,50.18
2018-02-17T20:09:38.732Z,50.42
2018-02-17T20:12:06.742Z,50.43
2018-02-17T20:14:34.753Z,51.10
2018-02-17T20:17:02.961Z,50.88
2018-02-17T20:19:30.919Z,50.69
2018-02-17T20:21:58.928Z,51.39
2018-02-17T20:24:27.277Z,51.20
2018-02-17T20:26:56.358Z,51.03
2018-02-17T20:29:24.517Z,53.97
2018-02-17T20:31:52.512Z,55.80
2018-02-17T20:34:20.547Z,53.83
2018-02-17T20:36:48.660Z,54.40
2018-02-17T20:39:16.675Z,54.96
2018-02-17T20:41:44.595Z,56.40
2018-02-17T20:44:12.574Z,54.64
2018-02-17T20:46:40.506Z,53.67
2018-02-17T20:49:08.498Z,52.33
2018-02-17T20:51:37.439Z,52.67
2018-02-17T20:54:05.439Z,51.70
2018-02-17T20:56:33.377Z,51.98
2018-02-17T20:59:01.285Z,51.83
2018-02-17T21:01:29.329Z,51.04
2018-02-17T21:03:57.339Z,50.91
2018-02-17T21:06:25.330Z,51.04
2018-02-17T21:08:53.284Z,51.95
2018-02-17T21:11:21.336Z,53.59
2018-02-17T21:13:49.258Z,55.43
2018-02-17T21:16:17.239Z,55.94
2018-02-17T21:18:45.423Z,54.06
2018-02-17T21:21:13.441Z,53.67
2018-02-17T21:23:41.446Z,53.52
2018-02-17T21:26:10.162Z,56.80
2018-02-17T21:28:38.245Z,56.17
2018-02-17T21:31:06.256Z,53.50
2018-02-17T21:33:34.181Z,52.27
2018-02-17T21:36:02.109Z,51.77
2018-02-17T21:38:30.126Z,51.73
2018-02-17T21:40:58.767Z,51.50
2018-02-17T21:43:26.801Z,50.78
2018-02-17T21:45:54.733Z,51.10
2018-02-17T21:48:22.668Z,51.97
2018-02-17T21:50:50.648Z,54.31
2018-02-17T21:53:18.610Z,54.92
2018-02-17T21:55:46.571Z,55.70
2018-02-17T21:58:14.562Z,57.14
2018-02-17T22:00:42.537Z,56.08
2018-02-17T22:03:10.497Z,54.77
2018-02-17T22:05:38.447Z,54.00
2018-02-17T22:08:06.366Z,53.33
2018-02-17T22:10:34.341Z,53.01
2018-02-17T22:13:02.263Z,52.29
2018-02-17T22:15:30.159Z,52.13
2018-02-17T22:17:58.095Z,51.88
2018-02-17T22:20:26.251Z,51.96
2018-02-17T22:22:54.284Z,51.81
2018-02-17T22:25:22.229Z,50.79
2018-02-17T22:27:50.609Z,50.77
2018-02-17T22:30:18.490Z,54.89
2018-02-17T22:32:46.422Z,57.97
2018-02-17T22:35:14.395Z,57.93
2018-02-17T22:37:42.385Z,58.59
2018-02-17T22:40:10.390Z,58.93
2018-02-17T22:42:38.358Z,58.09
2018-02-17T22:45:06.320Z,57.50
2018-02-17T22:47:34.372Z,55.57
2018-02-17T22:50:02.297Z,55.33
2018-02-17T22:52:30.260Z,55.97
2018-02-17T22:54:58.218Z,54.49
2018-02-17T22:57:26.146Z,53.54
2018-02-17T22:59:54.131Z,53.54
2018-02-17T23:02:22.072Z,54.43
2018-02-17T23:04:49.993Z,53.74
2018-02-17T23:07:17.966Z,53.71
2018-02-17T23:09:45.975Z,53.94
2018-02-17T23:12:13.889Z,55.06
2018-02-17T23:14:41.922Z,54.34
2018-02-17T23:17:09.907Z,54.82
2018-02-17T23:19:38.034Z,54.46
2018-02-17T23:22:06.212Z,54.20
2018-02-17T23:24:34.222Z,53.87
2018-02-17T23:27:02.218Z,54.05
2018-02-17T23:29:30.435Z,54.59
2018-02-17T23:31:58.611Z,54.56
2018-02-17T23:34:26.592Z,54.39
2018-02-17T23:36:54.545Z,54.24
2018-02-17T23:39:22.489Z,54.01
2018-02-17T23:41:50.438Z,54.14
2018-02-17T23:44:18.442Z,53.83
2018-02-17T23:46:46.418Z,53.80
2018-02-17T23:49:14.378Z,53.55
2018-02-17T23:51:42.327Z,53.73
2018-02-17T23:54:10.302Z,53.99
2018-02-17T23:56:38.243Z,55.08
2018-02-17T23:59:06.181Z,55.10
